Time;durP1;ratioP1;P1;durP2;ratioP2;P2;SDS_P1;SDS_P2;PMS_P1;PMS_P2;Temp;Humidity;BMP_temperature;BMP_pressure;BME280_temperature;BME280_humidity;BME280_pressure;Samples;Min_cycle;Max_cycle;Signal;HPM_P1;HPM_P2
2021/08/26 00:06:43;;;;;;;;;4.00;4.00;;;;;27.15;38.02;101898.72;5016928;28;45519;-69
2021/08/26 00:09:09;;;;;;;;;4.00;4.00;;;;;27.15;38.04;101909.41;5016247;28;45382;-72
2021/08/26 00:11:35;;;;;;;;;4.25;3.75;;;;;27.15;38.04;101898.72;5017862;28;45583;-69
2021/08/26 00:14:01;;;;;;;;;3.25;3.25;;;;;27.15;38.59;101906.75;5016931;28;46355;-69
2021/08/26 00:16:27;;;;;;;;;4.00;4.00;;;;;27.09;38.50;101902.13;5016583;28;45449;-70
2021/08/26 00:18:53;;;;;;;;;3.00;3.00;;;;;27.12;38.45;101910.59;5017021;28;45484;-69
2021/08/26 00:21:18;;;;;;;;;3.00;3.00;;;;;27.13;38.24;101906.94;5017254;28;45473;-69
2021/08/26 00:23:44;;;;;;;;;4.75;4.75;;;;;27.12;38.60;101907.06;5017059;28;45244;-69
2021/08/26 00:26:10;;;;;;;;;3.50;3.25;;;;;27.12;38.31;101907.91;5017150;28;45382;-69
2021/08/26 00:28:35;;;;;;;;;2.50;2.50;;;;;27.12;38.53;101912.41;5017122;28;45413;-69
2021/08/26 00:31:01;;;;;;;;;4.75;4.75;;;;;27.12;38.52;101913.25;5016761;28;45363;-69
2021/08/26 00:33:27;;;;;;;;;5.00;3.00;;;;;27.12;38.11;101904.41;5016939;28;45489;-69
2021/08/26 00:35:52;;;;;;;;;6.00;3.00;;;;;27.12;38.20;101907.91;5016932;28;46131;-69
2021/08/26 00:38:20;;;;;;;;;3.00;3.00;;;;;27.04;38.52;101900.00;5016789;28;45375;-69
2021/08/26 00:40:46;;;;;;;;;3.75;3.75;;;;;27.09;38.56;101910.16;5016646;28;45608;-69
2021/08/26 00:43:13;;;;;;;;;3.50;3.50;;;;;27.12;38.39;101907.06;5016422;28;47237;-69
2021/08/26 00:45:39;;;;;;;;;4.00;4.00;;;;;27.14;38.20;101915.78;5016534;28;45404;-69
2021/08/26 00:48:06;;;;;;;;;4.00;4.00;;;;;27.13;38.20;101909.59;5016783;28;45461;-69
2021/08/26 00:50:32;;;;;;;;;3.00;3.00;;;;;27.07;38.26;101903.16;5017092;28;45509;-69
2021/08/26 00:52:57;;;;;;;;;3.00;3.00;;;;;27.13;37.97;101904.28;5002402;28;46269;-69
2021/08/26 00:55:23;;;;;;;;;3.00;3.00;;;;;27.12;37.99;101904.41;5016396;28;45694;-69
2021/08/26 00:57:48;;;;;;;;;4.00;4.00;;;;;27.12;38.64;101901.75;5000251;28;45365;-69
2021/08/26 01:00:14;;;;;;;;;3.00;3.00;;;;;27.12;38.22;101899.06;5016506;28;45412;-69
2021/08/26 01:02:55;;;;;;;;;3.00;3.00;;;;;27.13;38.17;101903.44;5016897;28;46464;-69
2021/08/26 01:06:07;;;;;;;;;4.25;4.25;;;;;27.15;38.35;101906.75;5016494;28;45619;-69
2021/08/26 01:08:48;;;;;;;;;4.00;4.00;;;;;27.14;38.48;101897.88;4920371;28;45391;-69
2021/08/26 01:11:16;;;;;;;;;4.00;4.00;;;;;27.11;38.07;101889.41;4920934;28;45518;-69
2021/08/26 01:13:44;;;;;;;;;3.50;3.50;;;;;27.15;37.77;101896.88;4920443;28;46232;-69
2021/08/26 01:16:14;;;;;;;;;4.00;4.00;;;;;27.14;38.24;101881.88;4920217;28;45399;-69
2021/08/26 01:18:45;;;;;;;;;2.25;2.25;;;;;27.15;38.46;101885.38;4919359;28;45369;-69
2021/08/26 01:21:16;;;;;;;;;3.00;2.00;;;;;27.15;38.32;101883.53;4901244;28;45547;-69
2021/08/26 01:23:44;;;;;;;;;4.75;4.00;;;;;27.15;38.17;101880.84;4931863;28;46155;-69
2021/08/26 01:26:16;;;;;;;;;5.00;3.25;;;;;27.14;38.29;101879.19;4920508;28;45453;-69
2021/08/26 01:28:45;;;;;;;;;3.00;3.00;;;;;27.13;38.04;101872.22;4920371;28;45421;-69
2021/08/26 01:31:11;;;;;;;;;3.00;3.00;;;;;27.09;38.11;101864.75;4919962;28;46296;-69
2021/08/26 01:33:37;;;;;;;;;2.25;2.25;;;;;27.12;38.46;101867.84;4919286;28;45492;-69
2021/08/26 01:36:04;;;;;;;;;3.25;3.25;;;;;27.14;38.12;101873.03;4917132;28;45549;-69
2021/08/26 01:38:30;;;;;;;;;3.25;3.00;;;;;27.07;38.07;101857.75;4920498;28;45616;-69
2021/08/26 01:40:55;;;;;;;;;6.25;3.00;;;;;27.12;38.05;101867.84;4901131;28;45559;-69
2021/08/26 01:43:23;;;;;;;;;4.00;4.00;;;;;27.05;38.17;101865.13;4930670;28;45388;-69
2021/08/26 01:45:48;;;;;;;;;2.25;2.25;;;;;27.05;38.25;101861.63;5015458;28;45395;-69
2021/08/26 01:48:15;;;;;;;;;1.50;1.50;;;;;27.10;38.55;101866.38;5015765;28;45255;-69
2021/08/26 01:50:42;;;;;;;;;4.50;3.75;;;;;27.06;38.68;101852.59;5015974;28;45443;-69
2021/08/26 01:53:08;;;;;;;;;4.00;4.00;;;;;27.12;38.29;101856.34;5015318;28;46060;-69
2021/08/26 01:55:33;;;;;;;;;3.00;3.00;;;;;27.03;38.53;101848.47;5001866;28;45489;-69
2021/08/26 01:57:59;;;;;;;;;2.50;2.50;;;;;27.12;38.48;101859.84;5015559;28;45347;-69
2021/08/26 02:00:24;;;;;;;;;3.50;3.50;;;;;27.10;38.64;101856.53;5015663;28;45427;-69
2021/08/26 02:02:50;;;;;;;;;3.75;3.00;;;;;27.11;38.63;101850.19;5015397;28;46187;-69
2021/08/26 02:05:15;;;;;;;;;4.00;3.00;;;;;27.09;38.22;101846.84;5015399;28;45304;-69
2021/08/26 02:07:48;;;;;;;;;3.50;3.50;;;;;27.08;38.73;101839.88;5015488;28;45518;-69
2021/08/26 02:10:13;;;;;;;;;3.25;3.25;;;;;26.99;38.49;101841.84;5015205;28;45278;-69
2021/08/26 02:12:39;;;;;;;;;3.00;3.00;;;;;27.10;38.53;101847.69;5014610;28;46171;-69
2021/08/26 02:15:05;;;;;;;;;4.00;3.25;;;;;27.11;38.44;101842.16;5015125;28;45341;-69
2021/08/26 02:17:31;;;;;;;;;4.00;4.00;;;;;27.10;38.55;101840.50;5015951;28;45251;-69
2021/08/26 02:19:56;;;;;;;;;3.00;3.00;;;;;27.09;38.44;101844.19;5014906;28;45456;-69
2021/08/26 02:22:22;;;;;;;;;3.00;3.00;;;;;27.08;37.93;101837.22;5015081;28;45335;-69
2021/08/26 02:24:47;;;;;;;;;3.25;3.00;;;;;27.03;38.26;101831.59;5014905;28;45475;-69
2021/08/26 02:27:12;;;;;;;;;3.00;3.00;;;;;27.12;38.12;101843.81;5015317;28;45402;-69
2021/08/26 02:29:38;;;;;;;;;5.50;3.75;;;;;27.08;38.45;101837.22;5011407;28;45277;-69
2021/08/26 02:32:04;;;;;;;;;3.00;3.00;;;;;26.92;38.54;101803.56;5013935;28;45958;-69
2021/08/26 02:34:29;;;;;;;;;3.25;3.25;;;;;27.12;38.54;101837.63;5014489;28;45336;-69
2021/08/26 02:36:54;;;;;;;;;3.50;3.00;;;;;27.13;38.45;101831.31;4999521;28;45356;-69
2021/08/26 02:39:20;;;;;;;;;3.00;3.00;;;;;27.10;38.39;101829.00;5015107;28;45471;-69
2021/08/26 02:41:45;;;;;;;;;3.00;3.00;;;;;27.11;38.29;101836.00;5015101;28;45832;-69
2021/08/26 02:44:10;;;;;;;;;3.00;3.00;;;;;27.13;38.26;101832.16;5014996;28;45381;-69
2021/08/26 02:46:37;;;;;;;;;2.50;2.50;;;;;27.12;38.04;101830.44;5014862;28;45619;-69
2021/08/26 02:49:02;;;;;;;;;2.75;2.75;;;;;27.13;38.28;101834.81;5014231;28;45340;-69
2021/08/26 02:51:28;;;;;;;;;4.25;3.50;;;;;27.09;38.44;101824.69;5014484;28;47845;-69
2021/08/26 02:53:53;;;;;;;;;5.00;3.75;;;;;27.14;38.44;101822.28;5014913;28;45560;-69
2021/08/26 02:56:18;;;;;;;;;5.50;4.25;;;;;27.14;38.02;101835.66;5015314;28;45310;-69
2021/08/26 02:58:44;;;;;;;;;3.50;3.50;;;;;27.14;38.10;101835.66;5014580;28;45538;-69
2021/08/26 03:01:09;;;;;;;;;3.00;3.00;;;;;27.09;38.07;101822.81;5014705;28;45379;-69
2021/08/26 03:03:34;;;;;;;;;3.00;3.00;;;;;27.14;38.61;101830.31;5014059;28;45574;-69
2021/08/26 03:06:00;;;;;;;;;3.00;2.00;;;;;27.14;38.26;101832.97;5014906;28;45539;-69
2021/08/26 03:08:25;;;;;;;;;2.00;2.00;;;;;27.10;38.19;101827.16;5015266;28;45529;-69
2021/08/26 03:10:50;;;;;;;;;4.00;2.50;;;;;27.13;38.18;101829.47;5014439;28;45528;-69
2021/08/26 03:13:16;;;;;;;;;4.00;3.00;;;;;27.12;38.12;101825.09;5014334;28;45513;-69
2021/08/26 03:15:41;;;;;;;;;4.00;4.00;;;;;27.11;38.39;101826.16;5014306;28;45653;-69
2021/08/26 03:18:07;;;;;;;;;5.00;4.50;;;;;27.10;38.13;101824.47;5014349;28;45500;-69
2021/08/26 03:20:32;;;;;;;;;2.75;2.75;;;;;27.06;38.45;101821.34;5014813;28;46930;-69
2021/08/26 03:22:58;;;;;;;;;3.00;3.00;;;;;27.02;38.61;101813.91;5014340;28;45447;-69
2021/08/26 03:25:25;;;;;;;;;2.25;2.25;;;;;27.03;38.26;101819.09;5001044;28;45346;-69
2021/08/26 03:27:51;;;;;;;;;3.00;3.00;;;;;27.10;38.03;101823.66;5014011;28;45463;-69
2021/08/26 03:30:16;;;;;;;;;3.00;3.00;;;;;27.10;38.12;101820.97;5014238;28;45398;-69
2021/08/26 03:32:41;;;;;;;;;3.00;3.00;;;;;27.05;38.07;101817.03;5014467;28;45262;-69
2021/08/26 03:35:09;;;;;;;;;4.50;4.50;;;;;27.09;38.21;101824.69;5014222;28;45502;-69
2021/08/26 03:37:34;;;;;;;;;3.00;3.00;;;;;27.09;38.08;101819.34;5000712;28;45467;-69
2021/08/26 03:39:59;;;;;;;;;5.00;3.00;;;;;27.09;38.21;101811.34;5014014;28;46238;-70
2021/08/26 03:42:25;;;;;;;;;4.00;4.00;;;;;27.09;38.07;101816.66;5015606;28;45359;-69
2021/08/26 03:44:50;;;;;;;;;3.00;3.00;;;;;27.06;38.22;101804.53;5017926;28;45386;-69
2021/08/26 03:47:16;;;;;;;;;3.00;3.00;;;;;27.09;38.38;101809.47;5017927;28;45432;-69
2021/08/26 03:49:41;;;;;;;;;3.25;3.25;;;;;27.09;38.06;101809.47;5017287;28;46086;-68
2021/08/26 03:52:06;;;;;;;;;4.00;4.00;;;;;27.09;38.34;101809.47;5017140;28;45433;-69
2021/08/26 03:54:32;;;;;;;;;4.00;4.00;;;;;27.09;38.16;101812.13;5017449;28;45245;-69
2021/08/26 03:56:57;;;;;;;;;5.00;3.50;;;;;27.10;38.06;101810.28;5017493;28;45360;-69
2021/08/26 03:59:22;;;;;;;;;2.50;2.50;;;;;26.85;38.27;101777.63;5017899;28;45261;-69
2021/08/26 04:01:48;;;;;;;;;5.00;3.25;;;;;27.07;38.01;101812.34;4987003;28;45997;-69
2021/08/26 04:04:13;;;;;;;;;3.25;3.25;;;;;27.10;38.35;101813.78;5017195;28;45484;-69
2021/08/26 04:06:39;;;;;;;;;3.00;3.00;;;;;27.11;38.48;101818.13;5017264;28;45444;-69
2021/08/26 04:09:05;;;;;;;;;4.00;4.00;;;;;27.12;38.32;101819.78;5017286;28;45506;-68
2021/08/26 04:11:30;;;;;;;;;3.00;3.00;;;;;27.12;38.38;101816.25;5017600;28;45236;-69
2021/08/26 04:13:55;;;;;;;;;5.25;4.00;;;;;27.10;38.32;101816.47;5017134;28;45528;-69
2021/08/26 04:16:21;;;;;;;;;3.00;3.00;;;;;27.11;38.71;101817.31;5016582;28;45479;-69
2021/08/26 04:18:46;;;;;;;;;3.25;3.25;;;;;27.11;38.28;101817.31;5016925;28;46072;-69
2021/08/26 04:21:12;;;;;;;;;3.75;3.75;;;;;27.12;38.00;101818.94;5017212;28;45427;-69
2021/08/26 04:23:37;;;;;;;;;4.00;2.50;;;;;27.10;38.23;101816.47;5017875;28;45547;-69
2021/08/26 04:26:02;;;;;;;;;4.00;4.00;;;;;27.10;38.34;101824.47;5016761;28;45311;-69
2021/08/26 04:28:28;;;;;;;;;5.00;3.00;;;;;27.10;38.30;101818.31;5016654;28;45375;-69
2021/08/26 04:30:53;;;;;;;;;6.00;4.00;;;;;27.08;38.57;101818.50;5016383;28;45533;-69
2021/08/26 04:33:18;;;;;;;;;4.00;3.00;;;;;27.06;38.37;101817.88;5017007;28;45427;-69
2021/08/26 04:35:44;;;;;;;;;4.75;3.00;;;;;27.07;38.51;101811.50;5017267;28;45341;-69
2021/08/26 04:38:09;;;;;;;;;3.00;3.00;;;;;27.08;38.16;101818.50;5016770;28;46307;-69
2021/08/26 04:40:35;;;;;;;;;3.50;3.50;;;;;27.07;38.17;101820.34;5016620;28;45335;-69
2021/08/26 04:43:00;;;;;;;;;5.50;4.00;;;;;27.09;38.41;101819.34;5016599;28;45600;-69
2021/08/26 04:45:26;;;;;;;;;4.00;3.00;;;;;27.06;38.49;101810.66;5016172;28;45584;-69
2021/08/26 04:47:51;;;;;;;;;7.00;3.75;;;;;27.08;38.33;101818.50;5016738;28;46314;-69
2021/08/26 04:50:17;;;;;;;;;3.50;3.25;;;;;27.01;38.23;101806.94;5016919;28;45469;-69
2021/08/26 04:52:42;;;;;;;;;4.00;4.00;;;;;27.09;38.29;101814.00;5016495;28;45249;-69
2021/08/26 04:55:08;;;;;;;;;3.50;3.50;;;;;27.08;38.31;101818.50;5015522;28;45706;-69
2021/08/26 04:57:33;;;;;;;;;3.00;3.00;;;;;27.08;38.52;101815.84;5016334;28;46059;-69
2021/08/26 04:59:58;;;;;;;;;3.75;3.25;;;;;27.08;38.21;101813.16;5016173;28;45310;-69
2021/08/26 05:02:24;;;;;;;;;3.00;3.00;;;;;27.09;38.35;101808.66;5016972;28;45484;-69
2021/08/26 05:04:49;;;;;;;;;5.00;3.75;;;;;27.08;38.22;101807.81;5016132;28;45382;-69
2021/08/26 05:07:15;;;;;;;;;3.00;3.00;;;;;27.05;38.24;101801.03;5002604;28;48557;-69
2021/08/26 05:09:41;;;;;;;;;3.00;3.00;;;;;27.07;38.67;101812.34;5016303;28;45582;-69
2021/08/26 05:12:08;;;;;;;;;3.00;3.00;;;;;27.09;38.52;101811.34;5016273;28;45461;-69
2021/08/26 05:14:33;;;;;;;;;3.00;3.00;;;;;27.07;38.03;101806.16;5016392;28;45459;-69
2021/08/26 05:16:59;;;;;;;;;3.00;3.00;;;;;27.06;38.07;101808.00;5015657;28;46325;-69
2021/08/26 05:19:27;;;;;;;;;2.75;2.75;;;;;27.08;38.37;101805.16;5016069;28;45522;-69
2021/08/26 05:21:53;;;;;;;;;3.25;3.25;;;;;27.09;38.29;101806.78;5000571;28;45462;-69
2021/08/26 05:24:18;;;;;;;;;4.50;4.00;;;;;27.05;38.74;101805.53;5016015;28;45224;-69
2021/08/26 05:26:44;;;;;;;;;3.00;3.00;;;;;27.10;38.17;101810.28;5016350;28;45264;-69
2021/08/26 05:29:09;;;;;;;;;3.75;3.75;;;;;27.09;38.46;101809.47;5015679;28;45374;-69
2021/08/26 05:31:35;;;;;;;;;4.00;4.00;;;;;27.09;38.27;101806.78;5015768;28;45299;-69
2021/08/26 05:34:00;;;;;;;;;3.50;3.50;;;;;27.09;38.22;101809.47;5016012;28;45298;-70
2021/08/26 05:36:25;;;;;;;;;4.00;3.25;;;;;27.09;38.16;101806.78;5015898;28;46199;-69
2021/08/26 05:38:51;;;;;;;;;2.75;2.75;;;;;27.09;38.29;101798.78;5015947;28;45380;-69
2021/08/26 05:41:16;;;;;;;;;4.00;4.00;;;;;27.09;38.30;101804.13;5016308;28;45265;-69
2021/08/26 05:43:41;;;;;;;;;3.00;3.00;;;;;27.07;38.52;101798.16;5015331;28;45283;-69
2021/08/26 05:46:07;;;;;;;;;3.75;3.75;;;;;27.05;38.08;101803.69;5015330;28;49533;-69
2021/08/26 05:48:33;;;;;;;;;5.75;5.00;;;;;27.09;38.56;101820.16;5015564;28;45669;-69
2021/08/26 05:50:59;;;;;;;;;3.00;3.00;;;;;27.07;38.13;101814.16;5015640;28;45410;-69
2021/08/26 05:53:24;;;;;;;;;4.75;3.00;;;;;27.07;38.14;101816.84;5016232;28;45528;-69
2021/08/26 05:55:50;;;;;;;;;4.25;4.00;;;;;27.08;38.40;101823.84;5015375;28;46159;-69
2021/08/26 05:58:16;;;;;;;;;3.00;3.00;;;;;27.07;38.15;101824.84;5015089;28;45398;-69
2021/08/26 06:00:41;;;;;;;;;5.00;5.00;;;;;27.04;38.03;101822.56;5015506;28;45584;-69
2021/08/26 06:03:07;;;;;;;;;5.25;5.25;;;;;27.07;38.59;101827.53;4998297;28;45775;-69
2021/08/26 06:05:32;;;;;;;;;4.50;4.25;;;;;27.07;38.45;101828.34;5015788;28;46131;-69
2021/08/26 06:07:57;;;;;;;;;3.00;3.00;;;;;27.03;38.41;101815.59;5015296;28;45276;-69
2021/08/26 06:10:23;;;;;;;;;4.00;4.00;;;;;27.07;38.33;101828.34;5015128;28;47687;-69
2021/08/26 06:12:48;;;;;;;;;3.50;3.50;;;;;27.07;38.71;101824.84;5015056;28;45375;-69
2021/08/26 06:15:14;;;;;;;;;5.75;4.50;;;;;27.07;38.71;101832.88;5015396;28;46122;-69
2021/08/26 06:17:40;;;;;;;;;3.00;3.00;;;;;27.07;38.40;101833.69;5015942;28;45474;-69
2021/08/26 06:20:09;;;;;;;;;4.25;3.25;;;;;27.07;38.36;101828.34;5015252;28;45291;-69
2021/08/26 06:22:34;;;;;;;;;3.00;3.00;;;;;27.07;38.37;101828.34;5015168;28;45588;-69
2021/08/26 06:24:59;;;;;;;;;3.00;3.00;;;;;27.07;38.64;101825.69;5014770;28;45664;-69
2021/08/26 06:27:25;;;;;;;;;4.00;4.00;;;;;27.03;38.08;101824.44;5014701;28;45566;-69
2021/08/26 06:29:50;;;;;;;;;5.00;4.00;;;;;27.08;38.41;101821.19;5015377;28;45398;-70
2021/08/26 06:32:17;;;;;;;;;2.75;2.75;;;;;27.06;38.63;101817.88;5015552;28;45294;-69
2021/08/26 06:34:42;;;;;;;;;4.00;4.00;;;;;27.04;38.65;101811.88;5014633;28;46942;-69
2021/08/26 06:37:08;;;;;;;;;5.00;4.00;;;;;26.95;38.50;101801.34;5014738;28;45227;-69
2021/08/26 06:39:33;;;;;;;;;4.50;4.50;;;;;27.09;38.37;101822.00;5014955;28;45515;-69
2021/08/26 06:41:58;;;;;;;;;4.50;4.00;;;;;27.10;38.43;101826.31;5014701;28;45661;-70
2021/08/26 06:44:24;;;;;;;;;4.00;4.00;;;;;27.11;38.06;101820.81;5015192;28;46136;-69
2021/08/26 06:46:49;;;;;;;;;4.00;4.00;;;;;27.12;38.54;101816.25;5014508;28;45463;-69
2021/08/26 06:49:15;;;;;;;;;3.25;3.25;;;;;27.11;38.51;101825.31;5014814;28;45442;-69
2021/08/26 06:51:40;;;;;;;;;5.00;5.00;;;;;27.10;38.43;101819.13;5014040;28;45651;-69
2021/08/26 06:54:05;;;;;;;;;4.00;4.00;;;;;27.08;38.54;101815.84;5014838;28;47119;-70
2021/08/26 06:56:30;;;;;;;;;4.00;4.00;;;;;27.11;38.19;101831.50;5014915;28;45414;-69
2021/08/26 06:58:56;;;;;;;;;4.00;4.00;;;;;27.09;38.51;101822.00;5014613;28;45549;-69
2021/08/26 07:01:21;;;;;;;;;3.75;3.75;;;;;27.10;38.58;101823.66;5014581;28;45361;-70
2021/08/26 07:03:46;;;;;;;;;4.00;4.00;;;;;27.03;38.51;101810.25;5014330;28;46913;-69
2021/08/26 07:06:14;;;;;;;;;4.00;4.00;;;;;27.03;38.29;101813.75;5014612;28;45371;-69
2021/08/26 07:08:39;;;;;;;;;3.00;3.00;;;;;27.03;38.62;101813.75;5011226;28;45393;-69
2021/08/26 07:11:05;;;;;;;;;4.50;4.00;;;;;27.08;38.59;101821.19;5014093;28;45548;-69
2021/08/26 07:13:30;;;;;;;;;4.00;4.00;;;;;27.05;38.54;101818.88;5014346;28;46695;-70
2021/08/26 07:15:55;;;;;;;;;3.25;3.25;;;;;27.06;38.66;101820.56;5014269;28;45518;-70
2021/08/26 07:18:22;;;;;;;;;4.00;4.00;;;;;27.06;38.38;101821.34;5017400;28;45288;-69
2021/08/26 07:20:47;;;;;;;;;5.00;5.00;;;;;27.06;38.86;101815.22;5018321;28;45607;-70
2021/08/26 07:23:12;;;;;;;;;5.25;5.25;;;;;27.03;38.69;101812.91;5018279;28;46104;-70
2021/08/26 07:25:38;;;;;;;;;5.00;5.00;;;;;26.99;38.78;101801.78;5017319;28;45507;-69
2021/08/26 07:28:03;;;;;;;;;4.00;4.00;;;;;27.05;38.85;101811.72;5017886;28;45472;-69
2021/08/26 07:30:30;;;;;;;;;7.00;6.25;;;;;27.03;38.50;101803.06;5018050;28;45369;-70
2021/08/26 07:32:56;;;;;;;;;3.00;3.00;;;;;27.05;38.88;101813.53;5018072;28;45387;-69
2021/08/26 07:35:21;;;;;;;;;3.00;3.00;;;;;27.02;38.94;101812.09;5018087;28;45374;-69
2021/08/26 07:37:47;;;;;;;;;3.00;3.00;;;;;27.06;38.66;101804.53;5017591;28;45712;-69
2021/08/26 07:40:12;;;;;;;;;3.25;3.25;;;;;27.04;38.55;101803.88;5017240;28;45484;-69
2021/08/26 07:42:38;;;;;;;;;3.25;3.25;;;;;27.04;38.96;101804.69;5017550;28;47119;-70
2021/08/26 07:45:05;;;;;;;;;3.00;2.75;;;;;26.97;38.62;101793.13;5017471;28;45598;-70
2021/08/26 07:47:30;;;;;;;;;3.25;2.50;;;;;27.07;38.36;101808.84;5018210;28;45471;-69
2021/08/26 07:49:57;;;;;;;;;4.25;3.00;;;;;27.06;38.46;101807.19;5017493;28;45387;-70
2021/08/26 07:52:22;;;;;;;;;3.25;2.75;;;;;27.06;39.00;101808.00;5017157;28;46255;-70
2021/08/26 07:54:47;;;;;;;;;3.25;3.25;;;;;27.08;38.81;101805.16;5016928;28;45451;-68
2021/08/26 07:57:13;;;;;;;;;2.00;2.00;;;;;27.08;38.40;101810.50;5017725;28;45935;-69
2021/08/26 07:59:38;;;;;;;;;3.50;3.00;;;;;27.08;38.94;101807.81;5018103;28;45257;-69
2021/08/26 08:02:04;;;;;;;;;4.25;3.00;;;;;27.07;38.71;101811.50;5017174;28;45443;-69
2021/08/26 08:04:29;;;;;;;;;4.00;4.00;;;;;27.07;38.52;101809.66;5017081;28;45319;-69
2021/08/26 08:06:54;;;;;;;;;4.00;4.00;;;;;26.95;38.41;101789.84;5017312;28;45327;-70
2021/08/26 08:09:20;;;;;;;;;5.00;5.00;;;;;27.07;38.52;101801.66;5017060;28;45462;-69
2021/08/26 08:11:45;;;;;;;;;3.25;3.25;;;;;27.08;38.77;101807.81;5017553;28;47423;-70
2021/08/26 08:14:10;;;;;;;;;3.75;3.00;;;;;27.08;38.66;101805.16;5017446;28;45360;-69
2021/08/26 08:16:36;;;;;;;;;5.50;5.00;;;;;27.09;38.49;101800.66;5017079;28;45306;-69
2021/08/26 08:19:03;;;;;;;;;8.50;4.50;;;;;27.09;38.32;101804.13;5017012;28;45453;-69
2021/08/26 08:21:29;;;;;;;;;3.00;3.00;;;;;27.05;38.74;101790.34;5017132;28;46903;-70
2021/08/26 08:23:55;;;;;;;;;5.25;2.50;;;;;27.10;38.67;101807.63;5016676;28;45509;-69
2021/08/26 08:26:20;;;;;;;;;4.00;4.00;;;;;27.09;38.62;101804.13;5017374;28;45795;-69
2021/08/26 08:28:46;;;;;;;;;4.00;4.00;;;;;27.10;39.01;101810.28;5015579;28;45568;-69
2021/08/26 08:31:11;;;;;;;;;3.50;3.00;;;;;27.05;38.63;101801.03;5016840;28;45429;-70
2021/08/26 08:33:38;;;;;;;;;4.50;3.25;;;;;27.10;38.71;101812.97;5016785;28;45505;-69
2021/08/26 08:36:03;;;;;;;;;5.00;4.00;;;;;27.08;38.91;101805.16;5016892;28;45228;-70
2021/08/26 08:38:29;;;;;;;;;4.00;4.00;;;;;26.98;38.86;101797.47;5017134;28;45429;-70
2021/08/26 08:40:55;;;;;;;;;3.75;3.00;;;;;27.10;39.04;101819.13;5016407;28;47298;-69
2021/08/26 08:43:20;;;;;;;;;5.00;5.00;;;;;27.06;38.98;101812.53;5016489;28;45514;-69
2021/08/26 08:45:46;;;;;;;;;4.00;4.00;;;;;27.11;38.67;101815.47;5016810;28;45476;-69
2021/08/26 08:48:13;;;;;;;;;5.25;4.00;;;;;27.11;38.94;101811.97;4983280;28;45431;-70
2021/08/26 08:50:40;;;;;;;;;3.50;3.50;;;;;27.11;38.77;101817.31;5017133;28;46091;-70
2021/08/26 08:53:10;;;;;;;;;5.00;4.00;;;;;27.07;38.56;101815.00;5016146;28;45339;-70
2021/08/26 08:55:35;;;;;;;;;4.50;3.50;;;;;27.03;38.84;101802.22;5016352;28;45386;-69
2021/08/26 08:58:03;;;;;;;;;3.00;3.00;;;;;27.12;38.50;101824.28;5001576;28;45589;-69
2021/08/26 09:00:28;;;;;;;;;1.50;1.25;;;;;27.12;38.53;101817.09;5016341;28;47163;-69
2021/08/26 09:02:54;;;;;;;;;4.25;4.25;;;;;27.12;38.71;101811.75;5016360;28;48124;-70
2021/08/26 09:05:21;;;;;;;;;4.00;4.00;;;;;27.13;38.87;101807.28;5016702;28;45307;-69
2021/08/26 09:07:47;;;;;;;;;3.50;3.50;;;;;26.99;39.06;101788.44;5015924;28;45509;-69
2021/08/26 09:10:13;;;;;;;;;3.00;3.00;;;;;27.12;38.97;101806.41;5016114;28;45418;-70
2021/08/26 09:12:41;;;;;;;;;2.75;2.25;;;;;27.12;38.60;101802.91;5016166;28;45332;-70
2021/08/26 09:15:17;;;;;;;;;5.00;5.00;;;;;27.12;38.61;101802.91;5016244;28;45498;-69
2021/08/26 09:17:45;;;;;;;;;3.00;2.00;;;;;27.11;39.10;101801.28;5012695;28;45458;-69
2021/08/26 09:20:16;;;;;;;;;3.75;3.75;;;;;27.09;38.58;101811.34;5015862;28;45461;-69
2021/08/26 09:22:41;;;;;;;;;3.00;3.00;;;;;27.09;38.73;101800.66;5015892;28;45510;-69
2021/08/26 09:25:09;;;;;;;;;4.75;4.00;;;;;27.00;38.76;101798.09;5015843;28;45450;-69
2021/08/26 09:27:39;;;;;;;;;3.00;3.00;;;;;27.09;39.13;101814.00;5016130;28;45516;-69
2021/08/26 09:30:08;;;;;;;;;4.25;4.00;;;;;27.06;38.75;101804.53;5015747;28;47217;-70
2021/08/26 09:32:45;;;;;;;;;3.00;3.00;;;;;27.08;39.22;101815.84;5016453;28;45404;-70
2021/08/26 09:35:15;;;;;;;;;4.00;4.00;;;;;27.08;39.10;101802.47;5015714;28;45328;-69
2021/08/26 09:37:52;;;;;;;;;2.75;2.75;;;;;27.09;38.83;101806.00;5015750;28;45499;-69
2021/08/26 09:40:23;;;;;;;;;1.00;1.00;;;;;27.07;38.77;101806.16;5015004;28;47039;-69
2021/08/26 09:43:15;;;;;;;;;2.00;2.00;;;;;27.07;38.85;101812.34;5015365;28;45407;-69
2021/08/26 09:45:47;;;;;;;;;3.50;3.50;;;;;27.09;39.19;101816.66;5011128;28;45564;-70
2021/08/26 09:48:15;;;;;;;;;3.00;3.00;;;;;27.07;39.13;101820.34;5000131;28;45252;-70
2021/08/26 09:50:45;;;;;;;;;2.75;2.75;;;;;27.07;38.79;101817.69;5011477;28;46085;-70
2021/08/26 09:53:13;;;;;;;;;4.50;2.50;;;;;27.05;38.76;101824.22;5015588;28;45314;-69
2021/08/26 09:55:57;;;;;;;;;4.00;3.00;;;;;27.07;38.69;101822.19;5015436;28;45406;-70
2021/08/26 09:58:25;;;;;;;;;4.25;4.25;;;;;26.98;39.15;101813.50;5015414;28;45303;-69
2021/08/26 10:01:23;;;;;;;;;3.00;2.75;;;;;27.07;39.27;101825.69;5015071;28;45985;-69
2021/08/26 10:03:50;;;;;;;;;3.75;3.00;;;;;27.08;38.96;101826.53;5014944;28;45496;-69
2021/08/26 10:06:17;;;;;;;;;2.00;2.00;;;;;27.09;38.81;101835.38;5015464;28;45325;-69
2021/08/26 10:08:46;;;;;;;;;3.50;2.50;;;;;27.09;39.04;101832.69;5016102;28;45353;-70
2021/08/26 10:11:15;;;;;;;;;4.00;2.75;;;;;26.98;39.00;101816.16;5015447;28;46416;-69
2021/08/26 10:13:40;;;;;;;;;2.25;2.25;;;;;27.09;39.22;101838.84;5015080;28;45537;-69
2021/08/26 10:16:06;;;;;;;;;2.75;2.75;;;;;27.02;38.87;101827.28;5015099;28;45327;-69
2021/08/26 10:18:33;;;;;;;;;2.00;2.00;;;;;27.11;39.11;101838.66;5014962;28;45396;-69
2021/08/26 10:20:59;;;;;;;;;3.00;2.00;;;;;27.09;38.70;101836.16;5015156;28;46306;-70
2021/08/26 10:23:26;;;;;;;;;2.75;2.75;;;;;27.10;38.97;101839.66;5015832;28;45394;-69
2021/08/26 10:25:56;;;;;;;;;2.25;2.25;;;;;27.10;39.10;101837.00;5015211;28;45365;-69
2021/08/26 10:28:22;;;;;;;;;2.00;2.00;;;;;27.01;38.91;101826.44;5014913;28;45338;-69
2021/08/26 10:30:48;;;;;;;;;3.00;3.00;;;;;27.12;38.81;101840.31;5014663;28;45492;-69
2021/08/26 10:33:20;;;;;;;;;3.00;3.00;;;;;27.12;39.04;101829.63;5015007;28;45367;-69
2021/08/26 10:36:13;;;;;;;;;2.75;2.75;;;;;27.12;39.06;101833.13;5012010;28;45319;-69
2021/08/26 10:38:38;;;;;;;;;3.75;3.75;;;;;27.03;39.21;101816.41;5015432;28;45579;-69
2021/08/26 10:41:19;;;;;;;;;2.75;2.00;;;;;27.11;39.23;101825.31;5014435;28;46124;-69
2021/08/26 10:43:53;;;;;;;;;4.00;4.00;;;;;27.13;38.81;101826.81;5001108;28;45502;-69
2021/08/26 10:46:56;;;;;;;;;3.50;2.25;;;;;27.14;39.31;101835.66;5014730;28;45415;-69
2021/08/26 10:49:23;;;;;;;;;2.00;2.00;;;;;27.03;39.29;101824.44;5014490;28;45427;-69
2021/08/26 10:51:51;;;;;;;;;1.00;1.00;;;;;27.13;39.07;101842.84;5013576;28;46863;-69
2021/08/26 10:54:33;;;;;;;;;2.00;2.00;;;;;27.14;39.27;101838.31;5014727;28;45670;-69
2021/08/26 10:57:28;;;;;;;;;2.00;2.00;;;;;27.14;39.38;101838.31;5014728;28;45359;-69
2021/08/26 10:59:54;;;;;;;;;2.25;2.25;;;;;27.13;39.06;101847.34;5012381;28;45312;-69
2021/08/26 11:02:42;;;;;;;;;2.75;2.75;;;;;27.08;38.92;101839.88;5014518;28;47220;-69
2021/08/26 11:05:36;;;;;;;;;2.00;2.00;;;;;27.13;39.14;101850.00;5014379;28;45361;-69
2021/08/26 11:08:28;;;;;;;;;2.25;2.25;;;;;27.13;39.09;101866.03;5014456;28;45700;-69
2021/08/26 11:10:55;;;;;;;;;2.75;2.00;;;;;27.12;38.84;101856.34;5000967;28;45369;-69
2021/08/26 11:13:31;;;;;;;;;2.75;2.75;;;;;27.12;39.13;101867.00;5000734;28;47769;-69
2021/08/26 11:15:57;;;;;;;;;3.00;3.00;;;;;27.09;39.28;101852.19;5014149;28;45302;-69
2021/08/26 11:18:27;;;;;;;;;3.50;3.50;;;;;27.05;39.57;101848.25;5013996;28;45300;-69
2021/08/26 11:20:53;;;;;;;;;2.00;2.00;;;;;27.10;39.35;101859.19;5014584;28;45683;-69
2021/08/26 11:23:18;;;;;;;;;2.75;2.75;;;;;27.10;39.00;101861.88;5014843;28;46163;-69
2021/08/26 11:25:43;;;;;;;;;2.50;2.50;;;;;27.11;39.26;101855.53;5014143;28;45310;-69
2021/08/26 11:28:30;;;;;;;;;2.00;2.00;;;;;27.05;39.30;101846.44;5014657;28;45418;-69
2021/08/26 11:31:15;;;;;;;;;3.00;3.00;;;;;27.10;38.91;101858.38;5013774;28;45503;-69